KLSE

La Crosse Regional Airport

La Crosse, Wisconsin, USA
KLSE 192151Z 1922/2018 34010KT P6SM OVC025 FM200100 35009KT P6SM OVC035 FM200600 33008KT P6SM SCT035 FM201500 21012KT P6SM BKN120
Issued Valid From Valid To
Nov-19 @ 21:51 UTC
(40 minutes ago)
Nov-19 @ 22:00 UTC
(31 minutes ago)
Nov-20 @ 18:00 UTC
(in 19 hours)
Nov-19 @ 22:00 to Nov-20 @ 01:00
KLSE 192151Z 1922/2018 34010KT P6SM OVC025
Wind Visibility Clouds
340° at 10 knots Greater than 6 miles
  • Overcast at 2,500' AGL
From Nov-20 @ 01:00 to Nov-20 @ 06:00
FM200100 35009KT P6SM OVC035
Wind Visibility Clouds
350° at 9 knots Greater than 6 miles
  • Overcast at 3,500' AGL
From Nov-20 @ 06:00 to Nov-20 @ 15:00
FM200600 33008KT P6SM SCT035
Wind Visibility Clouds
330° at 8 knots Greater than 6 miles
  • Scattered at 3,500' AGL
From Nov-20 @ 15:00 to Nov-20 @ 18:00
FM201500 21012KT P6SM BKN120
Wind Visibility Clouds
210° at 12 knots Greater than 6 miles
  • Broken at 12,000' AGL
KLSE 192151Z 1922/2018 34010KT P6SM OVC025 FM200100 35009KT P6SM OVC035 FM200600 33008KT P6SM SCT035 FM201500 21012KT P6SM BKN120
Issued Nov-19 @ 21:51 UTC
(40 minutes ago)
Valid From Nov-19 @ 22:00 UTC
(31 minutes ago)
Valid To Nov-20 @ 18:00 UTC
(in 19 hours)
Nov-19 @ 22:00 - Nov-20 @ 01:00
Wind Visibility
340° at 10 knots Greater than 6 miles
Clouds
  • Overcast at 2,500' AGL
From Nov-20 @ 01:00 - Nov-20 @ 06:00
Wind Visibility
350° at 9 knots Greater than 6 miles
Clouds
  • Overcast at 3,500' AGL
From Nov-20 @ 06:00 - Nov-20 @ 15:00
Wind Visibility
330° at 8 knots Greater than 6 miles
Clouds
  • Scattered at 3,500' AGL
From Nov-20 @ 15:00 - Nov-20 @ 18:00
Wind Visibility
210° at 12 knots Greater than 6 miles
Clouds
  • Broken at 12,000' AGL